Time;durP1;ratioP1;P1;durP2;ratioP2;P2;SDS_P1;SDS_P2;PMS_P1;PMS_P2;Temp;Humidity;BMP_temperature;BMP_pressure;BME280_temperature;BME280_humidity;BME280_pressure;Samples;Min_cycle;Max_cycle;Signal;HPM_P1;HPM_P2
2023/08/12 00:02:18;;;;;;;26.25;20.65;;;21.60;99.90;;;22.18;82.37;100793.47;4954069;28;20082;-83
2023/08/12 00:04:47;;;;;;;29.20;22.20;;;21.60;99.90;;;22.18;81.94;100799.72;4946457;29;20068;-83
2023/08/12 00:07:14;;;;;;;30.70;22.52;;;21.60;99.90;;;22.17;82.27;100789.97;4954300;29;20046;-83
2023/08/12 00:09:42;;;;;;;31.63;23.58;;;21.60;99.90;;;22.16;83.29;100791.06;4954769;28;20055;-83
2023/08/12 00:12:09;;;;;;;32.08;22.73;;;21.60;99.90;;;22.15;82.72;100789.41;4955772;28;20075;-83
2023/08/12 00:14:36;;;;;;;35.88;25.25;;;21.60;99.90;;;22.16;83.06;100784.81;4955115;28;20043;-83
2023/08/12 00:17:05;;;;;;;32.50;22.88;;;21.60;99.90;;;22.14;82.97;100776.13;4946149;28;20078;-83
2023/08/12 00:19:32;;;;;;;30.33;22.85;;;21.60;99.90;;;22.13;82.55;100777.22;4936466;28;20055;-83
2023/08/12 00:21:59;;;;;;;31.73;23.77;;;21.60;99.90;;;22.12;82.47;100778.31;4935451;29;20532;-83
2023/08/12 00:24:26;;;;;;;27.90;21.65;;;21.60;99.90;;;22.13;82.81;100777.22;4936628;29;20052;-83
2023/08/12 00:26:54;;;;;;;28.35;22.85;;;21.60;99.90;;;22.11;83.29;100774.78;4935674;29;20122;-83
2023/08/12 00:29:21;;;;;;;28.38;22.02;;;21.60;99.90;;;22.10;83.79;100776.63;4936492;29;20039;-83
2023/08/12 00:31:48;;;;;;;29.67;22.65;;;21.60;99.90;;;22.12;83.38;100772.88;4942543;29;20048;-83
2023/08/12 00:34:18;;;;;;;29.63;22.60;;;21.60;99.90;;;22.11;83.67;100772.06;4946721;29;20047;-82
2023/08/12 00:36:45;;;;;;;27.27;21.23;;;21.60;99.90;;;22.10;83.62;100765.75;4943952;29;20043;-83
2023/08/12 00:39:13;;;;;;;27.50;21.73;;;21.60;99.90;;;22.09;83.56;100771.50;4954588;28;20059;-83
2023/08/12 00:41:40;;;;;;;27.40;21.55;;;21.60;99.90;;;22.07;83.29;100771.78;4953401;28;20051;-83
2023/08/12 00:44:07;;;;;;;27.63;20.67;;;21.50;99.90;;;22.07;83.72;100765.53;4953209;28;20082;-83
2023/08/12 00:46:37;;;;;;;27.50;22.33;;;21.50;99.90;;;22.05;83.66;100763.09;4968926;28;20048;-83
2023/08/12 00:49:05;;;;;;;27.58;21.85;;;21.50;99.90;;;22.04;84.23;100764.19;4948055;28;20481;-83
2023/08/12 00:51:34;;;;;;;26.65;20.77;;;21.50;99.90;;;22.04;83.93;100753.31;4938545;29;20495;-83
2023/08/12 00:54:06;;;;;;;30.15;22.90;;;21.50;99.90;;;22.03;83.64;100754.41;4939600;29;20047;-83
2023/08/12 00:56:34;;;;;;;28.10;21.27;;;21.50;99.90;;;22.04;83.62;100749.78;4934201;29;20532;-83
2023/08/12 00:59:05;;;;;;;27.30;20.70;;;21.50;99.90;;;22.02;83.70;100747.38;4949746;29;20052;-83
2023/08/12 01:01:35;;;;;;;27.20;21.05;;;21.50;99.90;;;22.01;83.76;100744.91;4949610;29;20055;-83
2023/08/12 01:04:03;;;;;;;27.20;20.85;;;21.50;99.90;;;22.00;83.95;100751.44;4951855;28;20055;-83
2023/08/12 01:06:30;;;;;;;26.75;20.92;;;21.40;99.90;;;22.00;83.55;100749.53;4940354;29;20036;-83
2023/08/12 01:08:58;;;;;;;24.30;19.67;;;21.40;99.90;;;21.99;83.33;100745.19;4948642;28;20079;-83
2023/08/12 01:11:35;;;;;;;28.10;21.23;;;21.40;99.90;;;21.99;83.33;100747.91;4952877;28;20055;-83
2023/08/12 01:14:13;;;;;;;27.15;20.48;;;21.40;99.90;;;21.97;82.64;100736.53;4948723;28;20040;-83
2023/08/12 01:16:46;;;;;;;25.35;19.98;;;21.40;99.90;;;21.96;82.95;100740.34;4949795;29;20139;-83
2023/08/12 01:19:34;;;;;;;28.17;21.20;;;21.40;99.90;;;21.96;83.36;100737.63;4959912;28;20152;-83
2023/08/12 01:22:03;;;;;;;29.00;21.30;;;21.40;99.90;;;21.96;83.62;100731.34;4960446;28;20163;-83
2023/08/12 01:24:38;;;;;;;27.05;19.85;;;21.40;99.90;;;21.94;83.56;100734.34;4953721;28;20134;-83
2023/08/12 01:27:07;;;;;;;26.42;20.33;;;21.40;99.90;;;21.92;83.51;100739.28;4938823;29;20047;-83
2023/08/12 01:29:35;;;;;;;25.85;20.77;;;21.40;99.90;;;21.91;83.26;100737.66;4949248;29;20043;-83
2023/08/12 01:32:16;;;;;;;28.65;20.85;;;21.40;99.90;;;21.90;83.46;100727.88;4933690;29;20497;-83
2023/08/12 01:34:51;;;;;;;26.35;20.15;;;21.40;99.90;;;21.89;83.36;100715.38;4949368;28;20484;-83
2023/08/12 01:37:26;;;;;;;27.40;21.40;;;21.40;99.90;;;21.89;83.42;100726.25;4954259;28;20071;-83
2023/08/12 01:39:57;;;;;;;27.30;21.17;;;21.40;99.90;;;21.88;83.40;100724.63;4962566;28;20513;-83
2023/08/12 01:42:26;;;;;;;26.40;21.40;;;21.40;99.90;;;21.89;83.63;100726.25;4965798;28;20051;-83
2023/08/12 01:44:55;;;;;;;25.17;20.80;;;21.40;99.90;;;21.89;83.91;100720.81;4952691;29;20516;-83
2023/08/12 01:47:22;;;;;;;26.15;19.95;;;21.40;99.90;;;21.88;83.73;100712.97;4940892;29;20824;-83
2023/08/12 01:49:49;;;;;;;28.15;20.98;;;21.40;99.90;;;21.86;83.49;100713.22;4948878;29;20059;-83
2023/08/12 01:52:16;;;;;;;27.08;19.23;;;21.30;99.90;;;21.85;84.04;100709.69;4948042;29;20176;-83
2023/08/12 01:54:44;;;;;;;26.10;18.52;;;21.30;99.90;;;21.85;83.89;100709.69;4949942;28;20070;-83
2023/08/12 01:57:12;;;;;;;23.98;18.95;;;21.30;99.90;;;21.85;84.15;100706.16;4953034;28;20126;-83
2023/08/12 01:59:39;;;;;;;26.13;17.63;;;21.30;99.90;;;21.86;83.92;100705.06;4952994;28;20755;-83
2023/08/12 02:02:07;;;;;;;28.42;19.17;;;21.30;99.90;;;21.83;84.10;100703.75;4948984;28;20518;-83
2023/08/12 02:04:36;;;;;;;23.80;18.85;;;21.30;99.90;;;21.82;83.41;100706.75;4950505;28;20043;-83
2023/08/12 02:07:03;;;;;;;25.63;18.88;;;21.30;99.90;;;21.81;83.63;100691.53;4968034;28;20054;-83
2023/08/12 02:09:31;;;;;;;24.10;18.67;;;21.30;99.90;;;21.81;83.93;100702.38;4952247;29;20121;-83
2023/08/12 02:11:59;;;;;;;28.05;19.13;;;21.30;99.90;;;21.80;83.23;100706.19;4960500;28;20053;-83
2023/08/12 02:14:27;;;;;;;25.45;19.27;;;21.30;99.90;;;21.78;83.34;100695.63;4943394;28;20048;-83
2023/08/12 02:17:01;;;;;;;26.67;18.80;;;21.30;99.90;;;21.78;83.46;100698.34;4933170;29;20485;-82
2023/08/12 02:19:28;;;;;;;24.20;18.17;;;21.30;99.90;;;21.77;83.67;100696.72;4932141;29;20094;-83
2023/08/12 02:21:55;;;;;;;25.95;18.45;;;21.20;99.90;;;21.77;83.39;100695.91;4933071;29;20489;-83
2023/08/12 02:24:22;;;;;;;26.70;19.17;;;21.20;99.90;;;21.76;83.39;100691.56;4933958;29;20457;-83
2023/08/12 02:26:49;;;;;;;27.25;18.80;;;21.20;99.90;;;21.75;83.46;100687.22;4932625;29;20054;-83
2023/08/12 02:29:17;;;;;;;24.25;18.42;;;21.20;99.90;;;21.75;83.71;100688.03;4939421;28;20111;-83
2023/08/12 02:31:45;;;;;;;24.45;17.58;;;21.20;99.90;;;21.73;83.19;100682.06;4941963;28;20048;-83
2023/08/12 02:34:12;;;;;;;24.63;17.85;;;21.20;99.90;;;21.73;83.26;100673.13;4935995;29;20543;-83
2023/08/12 02:36:40;;;;;;;24.83;17.20;;;21.20;99.90;;;21.72;83.21;100672.31;4932812;29;20071;-83
2023/08/12 02:39:07;;;;;;;22.90;17.20;;;21.20;99.90;;;21.72;82.94;100671.50;4933696;29;20040;-83
2023/08/12 02:41:34;;;;;;;25.17;16.88;;;21.20;99.90;;;21.71;83.43;100673.38;4933228;29;20135;-83
2023/08/12 02:44:02;;;;;;;23.42;16.73;;;21.20;99.90;;;21.71;83.60;100667.16;4959485;28;20411;-83
2023/08/12 02:46:29;;;;;;;23.20;16.80;;;21.20;99.90;;;21.70;83.03;100662.81;4942394;28;20071;-83
2023/08/12 02:48:58;;;;;;;22.67;15.98;;;21.10;99.90;;;21.68;83.17;100665.81;4936581;29;20509;-83
2023/08/12 02:51:25;;;;;;;19.95;15.18;;;21.10;99.90;;;21.69;83.12;100661.19;4936250;29;20094;-83
2023/08/12 02:53:52;;;;;;;22.38;15.18;;;21.10;99.90;;;21.69;83.00;100661.19;4938183;29;20051;-83
2023/08/12 02:56:19;;;;;;;19.48;14.77;;;21.10;99.90;;;21.67;82.89;100660.66;4945417;29;20051;-83
2023/08/12 02:58:47;;;;;;;23.20;15.50;;;21.10;99.90;;;21.65;82.94;100650.09;4955130;29;20133;-82
2023/08/12 03:01:15;;;;;;;20.95;15.73;;;21.10;99.90;;;21.66;82.80;100657.13;4948599;29;20075;-83
2023/08/12 03:03:42;;;;;;;18.85;13.05;;;21.10;99.90;;;21.65;83.02;100649.28;4960247;28;20086;-83
2023/08/12 03:06:11;;;;;;;15.60;11.45;;;21.20;99.90;;;21.65;82.88;100649.28;4937238;29;20054;-83
2023/08/12 03:08:38;;;;;;;18.58;12.88;;;21.10;99.90;;;21.65;83.20;100652.00;4936276;29;20051;-83
2023/08/12 03:11:06;;;;;;;18.52;11.63;;;21.10;99.90;;;21.63;83.64;100646.84;4958320;28;20051;-83
2023/08/12 03:13:34;;;;;;;16.63;12.05;;;21.10;99.90;;;21.63;83.22;100652.28;4971317;28;20048;-83
2023/08/12 03:16:01;;;;;;;16.92;11.15;;;21.10;99.90;;;21.63;82.88;100648.75;4955197;28;20377;-83
2023/08/12 03:18:29;;;;;;;17.40;11.85;;;21.10;99.90;;;21.63;83.40;100648.75;4949799;28;20449;-83
2023/08/12 03:20:57;;;;;;;17.63;11.13;;;21.10;99.90;;;21.62;83.87;100641.69;4953535;29;20047;-83
2023/08/12 03:23:27;;;;;;;17.83;11.27;;;21.10;99.90;;;21.62;83.74;100633.53;4954144;28;20043;-83
2023/08/12 03:25:54;;;;;;;15.73;10.38;;;21.10;99.90;;;21.59;84.05;100638.44;4951669;28;20055;-83
2023/08/12 03:28:22;;;;;;;17.95;12.35;;;21.10;99.90;;;21.59;84.07;100638.44;4951385;28;20130;-83
2023/08/12 03:30:54;;;;;;;20.25;12.73;;;21.10;99.90;;;21.59;84.30;100630.31;4951582;29;20139;-83
2023/08/12 03:33:24;;;;;;;15.63;11.85;;;21.10;99.90;;;21.59;84.16;100624.88;4941117;29;20063;-83
2023/08/12 03:35:51;;;;;;;22.98;13.70;;;21.10;99.90;;;21.57;84.45;100610.78;4965288;28;20043;-83
2023/08/12 03:38:19;;;;;;;22.23;13.57;;;21.00;99.90;;;21.56;84.10;100614.56;4947655;29;20048;-82
2023/08/12 03:40:48;;;;;;;20.42;14.13;;;21.00;99.90;;;21.57;84.42;100609.97;4950410;29;20111;-83
2023/08/12 03:43:17;;;;;;;22.02;14.07;;;21.00;99.90;;;21.56;84.59;100611.84;4951210;29;20410;-83
2023/08/12 03:45:46;;;;;;;21.13;14.10;;;21.10;99.90;;;21.57;84.56;100612.69;4936774;29;20439;-83
2023/08/12 03:48:16;;;;;;;18.33;13.90;;;21.00;99.90;;;21.57;84.89;100615.41;4950933;29;20405;-83
2023/08/12 03:50:46;;;;;;;18.58;13.20;;;21.00;99.90;;;21.55;84.80;100615.66;4949932;29;20824;-82
2023/08/12 03:53:13;;;;;;;21.08;13.73;;;21.00;99.90;;;21.54;84.90;100615.94;4942525;28;20057;-83
2023/08/12 03:55:42;;;;;;;20.15;13.77;;;21.00;99.90;;;21.54;85.10;100613.25;4952996;28;20062;-83
2023/08/12 03:58:11;;;;;;;21.58;13.43;;;21.00;99.90;;;21.52;84.76;100605.38;4954208;29;20422;-83
2023/08/12 04:00:42;;;;;;;19.75;13.60;;;21.00;99.90;;;21.54;85.21;100599.66;4954309;29;20057;-83
2023/08/12 04:03:11;;;;;;;24.02;13.35;;;21.00;99.90;;;21.54;85.34;100602.38;4939191;29;20047;-82
2023/08/12 04:05:38;;;;;;;21.27;14.15;;;21.00;99.90;;;21.54;85.17;100605.09;4952942;28;20062;-83
2023/08/12 04:08:05;;;;;;;19.45;12.98;;;21.00;99.90;;;21.53;85.30;100595.34;4944400;29;20050;-83
2023/08/12 04:10:33;;;;;;;18.33;12.25;;;21.00;99.90;;;21.53;84.77;100592.63;4948895;29;20043;-82
2023/08/12 04:13:00;;;;;;;20.63;12.63;;;21.00;99.90;;;21.52;85.68;100589.09;4946129;29;20055;-83
2023/08/12 04:15:28;;;;;;;18.58;11.52;;;21.00;99.90;;;21.51;85.04;100584.75;4937053;28;20150;-83
2023/08/12 04:17:56;;;;;;;22.42;11.68;;;21.00;99.90;;;21.52;84.58;100585.56;4950366;28;20505;-83
2023/08/12 04:20:23;;;;;;;14.43;10.50;;;21.00;99.90;;;21.51;84.85;100589.38;4934724;29;20079;-83
2023/08/12 04:22:50;;;;;;;22.27;10.38;;;21.00;99.90;;;21.51;84.33;100578.50;4960639;28;20043;-83
2023/08/12 04:25:18;;;;;;;15.02;10.05;;;21.00;99.90;;;21.51;84.20;100573.88;4943941;29;20043;-83
2023/08/12 04:27:47;;;;;;;12.70;9.63;;;21.00;99.90;;;21.51;84.07;100578.50;4948354;28;20047;-83
2023/08/12 04:30:15;;;;;;;19.02;10.88;;;21.00;99.90;;;21.51;84.28;100573.88;4943942;29;20551;-83
2023/08/12 04:32:43;;;;;;;14.38;10.27;;;21.00;99.90;;;21.51;84.26;100563.03;4953650;29;20047;-83
2023/08/12 04:35:12;;;;;;;15.80;9.73;;;21.00;99.90;;;21.50;84.50;100561.41;4950484;29;20063;-83
2023/08/12 04:37:40;;;;;;;17.67;11.63;;;21.00;99.90;;;21.50;84.50;100557.91;4953776;29;20055;-83
2023/08/12 04:40:11;;;;;;;16.25;11.63;;;21.00;99.90;;;21.49;84.70;100554.38;4963955;28;20047;-83
2023/08/12 04:42:38;;;;;;;18.58;12.75;;;21.00;99.90;;;21.49;85.04;100548.94;4950962;29;20043;-83
2023/08/12 04:45:08;;;;;;;17.30;12.13;;;21.00;99.90;;;21.49;85.12;100553.56;4947963;29;20051;-83
2023/08/12 04:47:36;;;;;;;18.63;13.25;;;21.00;99.90;;;21.49;84.62;100542.72;4950640;29;20496;-83
2023/08/12 04:50:06;;;;;;;18.73;13.43;;;21.00;99.90;;;21.50;84.74;100549.75;4938564;29;20047;-83
2023/08/12 04:52:34;;;;;;;22.40;13.90;;;21.00;99.90;;;21.50;85.39;100555.19;4934530;29;20513;-83
2023/08/12 04:55:01;;;;;;;21.05;13.55;;;21.00;99.90;;;21.51;85.08;100554.88;4950377;29;20060;-83
2023/08/12 04:57:28;;;;;;;21.55;13.60;;;21.00;99.90;;;21.51;85.47;100545.94;4959748;28;20043;-83
2023/08/12 04:59:56;;;;;;;18.60;13.48;;;21.00;99.90;;;21.52;86.33;100539.41;4943182;28;20050;-83
2023/08/12 05:02:24;;;;;;;17.40;12.82;;;21.00;99.90;;;21.51;86.04;100538.59;4937574;28;20493;-83
2023/08/12 05:04:53;;;;;;;15.07;12.23;;;21.00;99.90;;;21.53;86.24;100536.44;4955348;28;20119;-82
2023/08/12 05:07:23;;;;;;;20.83;13.23;;;21.10;99.90;;;21.54;86.47;100532.63;4935254;29;20054;-81
2023/08/12 05:09:50;;;;;;;17.77;12.93;;;21.10;99.90;;;21.54;87.29;100539.97;4957069;28;20043;-88
2023/08/12 05:12:17;;;;;;;18.67;13.82;;;21.10;99.90;;;21.54;87.84;100534.53;4954166;28;20049;-86
2023/08/12 05:14:45;;;;;;;18.38;13.10;;;21.10;99.90;;;21.54;87.19;100532.63;4937379;28;20485;-86
2023/08/12 05:17:12;;;;;;;16.83;13.20;;;21.10;99.90;;;21.56;87.05;100533.13;4953665;28;20142;-87
2023/08/12 05:19:39;;;;;;;19.23;14.13;;;21.10;99.90;;;21.57;86.94;100532.06;4953269;29;20055;-87
2023/08/12 05:22:09;;;;;;;21.05;14.27;;;21.10;99.90;;;21.59;87.39;100531.78;4953614;28;20069;-87
2023/08/12 05:24:37;;;;;;;19.88;13.95;;;21.20;99.90;;;21.57;87.99;100534.78;4938011;29;20135;-87
2023/08/12 05:27:05;;;;;;;19.98;13.98;;;21.20;99.90;;;21.58;88.04;100533.69;4934264;29;20171;-86
2023/08/12 05:29:32;;;;;;;23.30;13.40;;;21.10;99.90;;;21.59;88.37;100545.34;4942720;29;20050;-86
2023/08/12 05:31:59;;;;;;;20.75;12.50;;;21.20;99.90;;;21.57;88.76;100545.63;4944410;28;20043;-86
2023/08/12 05:34:27;;;;;;;14.70;10.25;;;21.10;99.90;;;21.52;88.67;100542.97;4933993;29;20083;-87
2023/08/12 05:36:55;;;;;;;15.48;10.63;;;21.10;99.90;;;21.50;88.80;100541.63;4936899;29;20067;-86
2023/08/12 05:39:22;;;;;;;15.40;9.88;;;21.10;99.90;;;21.50;88.60;100534.28;4940790;28;20043;-86
2023/08/12 05:41:52;;;;;;;17.58;9.55;;;21.10;99.90;;;21.50;88.05;100539.72;4939449;29;20054;-86
2023/08/12 05:44:19;;;;;;;14.43;9.57;;;21.10;99.90;;;21.50;88.00;100538.91;4948408;29;20047;-87
2023/08/12 05:46:46;;;;;;;16.75;9.07;;;21.10;99.90;;;21.50;88.49;100531.56;4949161;28;20053;-84
2023/08/12 05:49:14;;;;;;;13.88;8.07;;;21.00;99.90;;;21.49;88.63;100529.94;4960173;28;20431;-82
2023/08/12 05:51:41;;;;;;;11.48;8.60;;;21.10;99.90;;;21.50;88.20;100526.13;4939123;28;20047;-82
2023/08/12 05:54:08;;;;;;;15.23;8.80;;;21.10;99.90;;;21.51;88.15;100519.59;4953365;28;20047;-82
2023/08/12 05:56:35;;;;;;;13.85;8.95;;;21.00;99.90;;;21.50;88.39;100528.84;4941166;28;20039;-82
2023/08/12 05:59:05;;;;;;;12.05;8.30;;;21.10;99.90;;;21.51;88.33;100522.31;4936120;29;20213;-82
2023/08/12 06:01:32;;;;;;;13.77;8.50;;;21.10;99.90;;;21.48;88.64;100522.91;4946568;28;20039;-82
2023/08/12 06:03:59;;;;;;;14.52;7.95;;;21.10;99.90;;;21.50;88.83;100517.19;4958113;28;20084;-82
2023/08/12 06:06:26;;;;;;;15.10;8.43;;;21.10;99.90;;;21.52;88.69;100517.69;4935095;29;20051;-82
2023/08/12 06:08:54;;;;;;;16.10;8.68;;;21.10;99.90;;;21.52;89.30;100520.41;4942072;29;20059;-82
2023/08/12 06:11:21;;;;;;;13.77;8.77;;;21.10;99.90;;;21.54;89.62;100519.06;4944489;29;20058;-83
2023/08/12 06:13:48;;;;;;;17.83;9.43;;;21.20;99.90;;;21.49;90.17;100529.13;4963895;28;20051;-83
2023/08/12 06:16:17;;;;;;;14.75;8.52;;;21.10;99.90;;;21.50;90.18;100523.41;4943166;29;20052;-83
2023/08/12 06:18:44;;;;;;;12.48;8.98;;;21.10;99.90;;;21.50;89.33;100523.41;4944572;29;20132;-83
2023/08/12 06:21:11;;;;;;;13.70;8.52;;;21.20;99.90;;;21.51;89.35;100527.75;4946682;29;20486;-82
2023/08/12 06:23:38;;;;;;;15.82;9.20;;;21.10;99.90;;;21.51;88.97;100525.03;4938904;28;20130;-83
2023/08/12 06:26:05;;;;;;;12.50;8.85;;;21.10;99.90;;;21.54;90.03;100527.19;4942991;29;20147;-82
2023/08/12 06:28:33;;;;;;;13.00;9.10;;;21.20;99.90;;;21.52;89.63;100518.53;4948804;29;20086;-82
2023/08/12 06:31:00;;;;;;;16.55;9.40;;;21.10;99.90;;;21.51;89.56;100522.31;4947047;29;20055;-82
2023/08/12 06:33:29;;;;;;;15.57;8.43;;;21.10;99.90;;;21.51;89.34;100530.47;4944463;28;20476;-82
2023/08/12 06:35:56;;;;;;;13.15;8.63;;;21.10;99.90;;;21.53;89.41;100516.63;4942394;29;20064;-82
2023/08/12 06:38:23;;;;;;;18.05;9.13;;;21.10;99.90;;;21.51;88.84;100514.19;4941037;28;20040;-82
2023/08/12 06:40:50;;;;;;;11.73;8.32;;;21.10;99.90;;;21.49;89.46;100510.16;4942840;28;20514;-82
2023/08/12 06:43:18;;;;;;;12.90;7.70;;;21.10;99.90;;;21.47;89.27;100501.47;4948262;28;20118;-83
2023/08/12 06:45:45;;;;;;;13.57;7.57;;;21.10;99.90;;;21.43;89.58;100503.94;4948422;29;20043;-83
2023/08/12 06:48:12;;;;;;;13.48;6.82;;;21.00;99.90;;;21.43;89.54;100500.44;4940725;29;20067;-82
2023/08/12 06:50:41;;;;;;;10.60;6.60;;;21.00;99.90;;;21.40;89.29;100503.69;4962478;28;20111;-83
2023/08/12 06:53:08;;;;;;;11.82;6.80;;;21.00;99.90;;;21.38;88.67;100495.84;4958558;28;20039;-84
2023/08/12 06:55:35;;;;;;;12.07;6.22;;;21.00;99.90;;;21.37;89.15;100491.50;4965651;28;20560;-85
2023/08/12 06:58:03;;;;;;;11.38;6.10;;;21.00;99.90;;;21.37;88.58;100491.50;4950060;29;20036;-85
2023/08/12 07:00:30;;;;;;;12.23;6.13;;;21.00;99.90;;;21.35;89.09;100474.69;4952175;28;20047;-86
2023/08/12 07:02:58;;;;;;;11.32;5.93;;;21.00;99.90;;;21.37;89.40;100488.78;4952977;28;20126;-85
2023/08/12 07:05:25;;;;;;;11.00;6.18;;;20.90;99.90;;;21.38;89.25;100489.59;4946392;29;20425;-82
2023/08/12 07:07:53;;;;;;;9.32;6.18;;;21.00;99.90;;;21.38;89.23;100476.03;4941816;28;20118;-82
2023/08/12 07:10:21;;;;;;;14.90;5.75;;;21.00;99.90;;;21.39;89.47;100469.50;4940713;29;20556;-82
2023/08/12 07:12:48;;;;;;;10.32;6.45;;;21.00;99.90;;;21.38;89.11;100465.19;4947401;29;20098;-82
2023/08/12 07:15:15;;;;;;;8.98;5.43;;;21.00;99.90;;;21.34;89.18;100454.91;4951638;29;20142;-82
2023/08/12 07:17:42;;;;;;;8.95;5.63;;;21.00;99.90;;;21.36;89.06;100473.59;4940245;28;20036;-83
2023/08/12 07:20:10;;;;;;;9.55;6.00;;;21.00;99.90;;;21.33;89.96;100485.03;4944254;29;20504;-82
2023/08/12 07:22:37;;;;;;;8.52;5.18;;;21.00;99.90;;;21.33;90.41;100479.59;4947521;28;20461;-82
2023/08/12 07:25:07;;;;;;;8.95;5.40;;;21.00;99.90;;;21.38;90.77;100473.34;4946513;28;20050;-82
2023/08/12 07:27:34;;;;;;;9.98;5.40;;;21.00;99.90;;;21.40;91.62;100465.72;4954218;28;20131;-81
2023/08/12 07:30:01;;;;;;;8.98;5.07;;;21.00;99.90;;;21.43;91.56;100476.81;4939920;28;20053;-81
2023/08/12 07:32:28;;;;;;;10.27;5.70;;;21.10;99.90;;;21.42;91.68;100483.31;4938955;29;20106;-81
2023/08/12 07:34:56;;;;;;;8.70;5.55;;;21.10;99.90;;;21.41;91.40;100489.84;4939719;29;20663;-82
2023/08/12 07:37:23;;;;;;;7.82;5.28;;;21.10;99.90;;;21.43;92.20;100489.56;4943507;28;20068;-85
2023/08/12 07:39:50;;;;;;;7.22;5.22;;;21.10;99.90;;;21.46;91.70;100492.50;4939675;29;20040;-83
2023/08/12 07:42:19;;;;;;;7.78;5.28;;;21.20;99.90;;;21.39;92.28;100494.75;4947553;29;20074;-82
2023/08/12 07:44:46;;;;;;;10.45;5.40;;;21.10;99.90;;;21.38;92.09;100509.41;4957497;28;20062;-82
2023/08/12 07:47:15;;;;;;;14.70;6.20;;;21.10;99.90;;;21.38;94.01;100493.13;4936047;29;20059;-83
2023/08/12 07:49:42;;;;;;;10.68;6.07;;;21.20;99.90;;;21.40;93.40;100490.94;4951088;29;20052;-82
2023/08/12 07:52:10;;;;;;;8.90;6.50;;;21.20;99.90;;;21.42;94.07;100472.44;4940640;29;20114;-83
2023/08/12 07:54:37;;;;;;;8.65;5.93;;;21.20;99.90;;;21.46;94.93;100472.72;4948992;28;20748;-86
2023/08/12 07:57:05;;;;;;;8.18;6.15;;;21.30;99.90;;;21.47;94.56;100471.59;4942123;29;20074;-85
2023/08/12 07:59:37;;;;;;;10.95;6.68;;;21.30;99.90;;;21.41;95.08;100473.56;4952299;29;20833;-85
2023/08/12 08:02:04;;;;;;;11.27;6.97;;;21.30;99.90;;;21.37;95.46;100475.22;4963849;28;20079;-86
2023/08/12 08:04:31;;;;;;;10.88;7.45;;;21.20;99.90;;;21.36;95.83;100473.59;4947244;28;20405;-86
2023/08/12 08:06:59;;;;;;;10.52;7.45;;;21.20;99.90;;;21.39;96.03;100475.75;4936058;29;20083;-86
2023/08/12 08:09:26;;;;;;;10.02;7.68;;;21.20;99.90;;;21.42;97.06;100477.06;4943352;28;20035;-86
2023/08/12 08:11:53;;;;;;;11.95;7.70;;;21.30;99.90;;;21.42;96.45;100472.44;4965084;28;20137;-86
2023/08/12 08:14:21;;;;;;;12.07;8.18;;;21.20;99.90;;;21.37;96.64;100472.50;4949469;29;20451;-86
2023/08/12 08:16:49;;;;;;;9.52;7.85;;;21.20;99.90;;;21.39;96.31;100474.94;4939063;29;20460;-86
2023/08/12 08:19:16;;;;;;;11.00;8.13;;;21.20;99.90;;;21.43;95.61;100474.09;4951184;29;20054;-86
2023/08/12 08:21:44;;;;;;;10.93;8.15;;;21.20;99.90;;;21.47;95.63;100469.72;4953685;29;20180;-86
2023/08/12 08:24:12;;;;;;;11.18;8.15;;;21.20;99.90;;;21.51;95.87;100478.91;4954013;28;20043;-86
2023/08/12 08:26:40;;;;;;;11.45;8.55;;;21.30;99.90;;;21.53;96.52;100479.44;4946542;28;20568;-87
2023/08/12 08:29:08;;;;;;;10.65;7.97;;;21.30;99.90;;;21.52;96.13;100480.53;4954391;28;20831;-88
2023/08/12 08:31:36;;;;;;;12.52;7.80;;;21.30;99.90;;;21.51;96.41;100478.91;4951809;29;20519;-87
2023/08/12 08:34:05;;;;;;;11.93;8.05;;;21.30;99.90;;;21.55;96.35;100471.81;4951844;29;20138;-87
2023/08/12 08:36:32;;;;;;;10.02;8.30;;;21.40;99.90;;;21.55;97.21;100466.38;4950515;29;20146;-87
2023/08/12 08:38:59;;;;;;;9.80;7.95;;;21.40;99.90;;;21.60;97.53;100460.09;4947912;29;20154;-87
2023/08/12 08:41:31;;;;;;;13.35;8.90;;;21.50;99.90;;;21.70;97.90;100459.19;4949209;28;20049;-86
2023/08/12 08:44:04;;;;;;;12.90;9.02;;;21.50;99.90;;;21.73;99.33;100466.78;4962467;29;20047;-86
2023/08/12 08:46:31;;;;;;;12.95;8.25;;;21.60;99.90;;;21.70;97.79;100468.16;4955911;28;20047;-85
2023/08/12 08:49:01;;;;;;;11.32;8.25;;;21.60;99.90;;;21.73;97.55;100469.50;4950526;29;20047;-85
2023/08/12 08:51:31;;;;;;;12.35;8.90;;;21.60;99.90;;;21.71;98.32;100471.69;4956232;29;20121;-85
2023/08/12 08:53:59;;;;;;;11.52;8.43;;;21.60;99.90;;;21.70;97.76;100470.06;4941115;28;20067;-85
2023/08/12 08:56:27;;;;;;;11.07;8.45;;;21.50;99.90;;;21.70;97.33;100470.88;4937224;29;20043;-85
2023/08/12 08:58:54;;;;;;;12.52;8.98;;;21.50;99.90;;;21.73;96.64;100472.22;4960551;28;20083;-86
2023/08/12 09:01:22;;;;;;;13.93;8.90;;;21.50;99.90;;;21.76;97.96;100475.16;4948657;29;20031;-86
2023/08/12 09:03:53;;;;;;;12.07;8.40;;;21.60;99.90;;;21.73;98.22;100466.78;4954711;29;20049;-85
2023/08/12 09:06:22;;;;;;;12.45;8.63;;;21.60;99.90;;;21.72;97.65;100473.31;4956494;29;20054;-85
2023/08/12 09:08:53;;;;;;;8.70;7.65;;;21.60;99.90;;;21.71;97.62;100477.09;4955635;28;20086;-85
2023/08/12 09:11:21;;;;;;;10.77;7.72;;;21.60;99.90;;;21.71;97.82;100480.63;4948534;28;20047;-85
2023/08/12 09:13:48;;;;;;;11.40;8.10;;;21.60;99.90;;;21.72;98.84;100479.56;4939676;28;20524;-85
2023/08/12 09:16:16;;;;;;;14.15;7.32;;;21.60;99.90;;;21.70;97.79;100489.88;4943845;29;20070;-86
2023/08/12 09:18:44;;;;;;;8.98;7.30;;;21.60;99.90;;;21.63;97.30;100475.03;4934905;29;20039;-90
2023/08/12 09:21:15;;;;;;;10.13;6.78;;;21.50;99.90;;;21.62;97.15;100476.94;4934928;29;20663;-90
2023/08/12 09:23:44;;;;;;;9.23;6.97;;;21.50;99.90;;;21.59;96.81;100472.88;4954316;28;20043;-90
2023/08/12 09:26:19;;;;;;;10.23;6.78;;;21.40;99.90;;;21.62;96.95;100473.38;4953300;29;20051;-90
2023/08/12 09:28:47;;;;;;;12.48;6.53;;;21.40;99.90;;;21.63;97.49;100467.69;4957824;28;20051;-88
2023/08/12 09:31:25;;;;;;;10.13;6.88;;;21.50;99.90;;;21.69;98.90;100473.88;4948123;29;20098;-87
2023/08/12 09:33:52;;;;;;;14.10;6.50;;;21.50;99.90;;;21.72;98.21;100467.91;4949289;29;20055;-90
2023/08/12 09:36:22;;;;;;;8.50;5.50;;;21.60;99.90;;;21.73;98.19;100469.50;4954262;29;20743;-89
2023/08/12 09:38:54;;;;;;;10.40;6.00;;;21.60;99.90;;;21.69;97.93;100461.13;4954085;28;20113;-91
2023/08/12 09:41:24;;;;;;;10.00;5.82;;;21.60;99.90;;;21.71;97.70;100475.19;4954315;28;20118;-88
2023/08/12 09:43:53;;;;;;;10.40;6.07;;;21.60;99.90;;;21.72;97.72;100470.59;4947751;29;20466;-88
2023/08/12 09:46:24;;;;;;;7.38;5.38;;;21.60;99.90;;;21.71;98.55;100468.97;4960110;28;20043;-88
2023/08/12 09:48:52;;;;;;;9.57;5.40;;;21.60;99.90;;;21.74;99.32;100473.84;4957580;28;20039;-88
2023/08/12 09:51:21;;;;;;;10.93;5.38;;;21.70;99.90;;;21.78;100.00;100472.97;4963862;28;20062;-88
2023/08/12 09:53:50;;;;;;;6.90;5.30;;;21.70;99.90;;;21.82;100.00;100470.50;4951647;29;20055;-88
2023/08/12 09:56:24;;;;;;;8.68;5.45;;;21.80;99.90;;;21.80;100.00;100472.69;4941674;28;20138;-88
2023/08/12 09:58:53;;;;;;;6.47;4.78;;;21.80;99.90;;;21.80;99.87;100472.69;4952387;28;20078;-88
2023/08/12 10:01:21;;;;;;;7.03;4.25;;;21.80;99.90;;;21.82;99.46;100476.75;4940138;29;20469;-89
2023/08/12 10:03:52;;;;;;;9.55;4.63;;;21.80;99.90;;;21.84;99.08;100471.81;4939647;29;20051;-89
2023/08/12 10:06:20;;;;;;;8.60;3.97;;;21.80;99.90;;;21.82;98.85;100475.94;4956735;28;20043;-89
2023/08/12 10:08:47;;;;;;;6.30;3.70;;;21.80;99.90;;;21.80;97.65;100467.25;4951927;28;20074;-90